sensor_id;sensor_type;location;lat;lon;timestamp;temperature;humidity
21648;DHT22;10985;54.182;7.890;2023-08-01T00:00:55;17.10;99.90
21648;DHT22;10985;54.182;7.890;2023-08-01T00:03:21;17.10;99.90
21648;DHT22;10985;54.182;7.890;2023-08-01T00:05:47;17.10;99.90
21648;DHT22;10985;54.182;7.890;2023-08-01T00:08:12;17.10;99.90
21648;DHT22;10985;54.182;7.890;2023-08-01T00:10:39;17.10;99.90
21648;DHT22;10985;54.182;7.890;2023-08-01T00:13:04;17.10;99.90
21648;DHT22;10985;54.182;7.890;2023-08-01T00:15:30;17.10;99.90
21648;DHT22;10985;54.182;7.890;2023-08-01T00:17:55;17.10;99.90
21648;DHT22;10985;54.182;7.890;2023-08-01T00:20:21;17.10;99.90
21648;DHT22;10985;54.182;7.890;2023-08-01T00:22:47;17.10;99.90
21648;DHT22;10985;54.182;7.890;2023-08-01T00:25:13;17.00;99.90
21648;DHT22;10985;54.182;7.890;2023-08-01T00:27:38;17.10;99.90
21648;DHT22;10985;54.182;7.890;2023-08-01T00:30:04;17.00;99.90
21648;DHT22;10985;54.182;7.890;2023-08-01T00:32:30;17.00;99.90
21648;DHT22;10985;54.182;7.890;2023-08-01T00:37:24;17.00;99.90
21648;DHT22;10985;54.182;7.890;2023-08-01T00:39:49;17.00;99.90
21648;DHT22;10985;54.182;7.890;2023-08-01T00:42:15;17.00;99.90
21648;DHT22;10985;54.182;7.890;2023-08-01T00:44:41;17.00;99.90
21648;DHT22;10985;54.182;7.890;2023-08-01T00:47:07;17.00;99.90
21648;DHT22;10985;54.182;7.890;2023-08-01T00:49:33;16.90;99.90
21648;DHT22;10985;54.182;7.890;2023-08-01T00:51:58;16.90;99.90
21648;DHT22;10985;54.182;7.890;2023-08-01T00:54:25;16.90;99.90
21648;DHT22;10985;54.182;7.890;2023-08-01T00:56:50;16.90;99.90
21648;DHT22;10985;54.182;7.890;2023-08-01T00:59:16;16.90;99.90
21648;DHT22;10985;54.182;7.890;2023-08-01T01:01:41;16.90;99.90
21648;DHT22;10985;54.182;7.890;2023-08-01T01:04:08;16.90;99.90
21648;DHT22;10985;54.182;7.890;2023-08-01T01:09:02;16.90;99.90
21648;DHT22;10985;54.182;7.890;2023-08-01T01:11:30;17.00;99.90
21648;DHT22;10985;54.182;7.890;2023-08-01T01:13:55;17.00;99.90
21648;DHT22;10985;54.182;7.890;2023-08-01T01:16:21;17.00;99.90
21648;DHT22;10985;54.182;7.890;2023-08-01T01:18:46;17.00;99.90
21648;DHT22;10985;54.182;7.890;2023-08-01T01:21:12;16.90;99.90
21648;DHT22;10985;54.182;7.890;2023-08-01T01:23:38;16.90;99.90
21648;DHT22;10985;54.182;7.890;2023-08-01T01:26:06;16.90;99.90
21648;DHT22;10985;54.182;7.890;2023-08-01T01:28:33;16.90;99.90
21648;DHT22;10985;54.182;7.890;2023-08-01T01:30:59;17.00;99.90
21648;DHT22;10985;54.182;7.890;2023-08-01T01:33:25;17.00;99.90
21648;DHT22;10985;54.182;7.890;2023-08-01T01:35:51;16.90;99.90
21648;DHT22;10985;54.182;7.890;2023-08-01T01:38:17;16.90;99.90
21648;DHT22;10985;54.182;7.890;2023-08-01T01:40:42;17.00;99.90
21648;DHT22;10985;54.182;7.890;2023-08-01T01:43:08;17.00;99.90
21648;DHT22;10985;54.182;7.890;2023-08-01T01:45:33;17.00;99.90
21648;DHT22;10985;54.182;7.890;2023-08-01T01:47:59;17.00;99.90
21648;DHT22;10985;54.182;7.890;2023-08-01T01:50:24;17.00;99.90
21648;DHT22;10985;54.182;7.890;2023-08-01T01:52:50;17.00;99.90
21648;DHT22;10985;54.182;7.890;2023-08-01T01:55:15;17.00;99.90
21648;DHT22;10985;54.182;7.890;2023-08-01T01:57:41;17.00;99.90
21648;DHT22;10985;54.182;7.890;2023-08-01T02:00:07;17.00;99.90
21648;DHT22;10985;54.182;7.890;2023-08-01T02:02:35;17.10;99.90
21648;DHT22;10985;54.182;7.890;2023-08-01T02:05:01;17.10;99.90
21648;DHT22;10985;54.182;7.890;2023-08-01T02:07:26;17.10;99.90
21648;DHT22;10985;54.182;7.890;2023-08-01T02:09:52;17.10;99.90
21648;DHT22;10985;54.182;7.890;2023-08-01T02:12:18;17.20;99.90
21648;DHT22;10985;54.182;7.890;2023-08-01T02:14:43;17.20;99.90
21648;DHT22;10985;54.182;7.890;2023-08-01T02:17:08;17.10;99.90
21648;DHT22;10985;54.182;7.890;2023-08-01T02:19:34;17.00;99.90
21648;DHT22;10985;54.182;7.890;2023-08-01T02:21:59;16.90;99.90
21648;DHT22;10985;54.182;7.890;2023-08-01T02:24:25;16.80;99.90
21648;DHT22;10985;54.182;7.890;2023-08-01T02:26:51;16.80;99.90
21648;DHT22;10985;54.182;7.890;2023-08-01T02:29:16;16.80;99.90
21648;DHT22;10985;54.182;7.890;2023-08-01T02:31:42;16.70;99.90
21648;DHT22;10985;54.182;7.890;2023-08-01T02:34:08;16.70;99.90
21648;DHT22;10985;54.182;7.890;2023-08-01T02:36:33;16.60;99.90
21648;DHT22;10985;54.182;7.890;2023-08-01T02:38:59;16.60;99.90
21648;DHT22;10985;54.182;7.890;2023-08-01T02:41:24;16.60;99.90
21648;DHT22;10985;54.182;7.890;2023-08-01T02:43:50;16.60;99.90
21648;DHT22;10985;54.182;7.890;2023-08-01T02:46:15;16.60;99.90
21648;DHT22;10985;54.182;7.890;2023-08-01T02:48:41;16.60;99.90
21648;DHT22;10985;54.182;7.890;2023-08-01T02:51:06;16.60;99.90
21648;DHT22;10985;54.182;7.890;2023-08-01T02:53:35;16.60;99.90
21648;DHT22;10985;54.182;7.890;2023-08-01T02:56:00;16.60;99.90
21648;DHT22;10985;54.182;7.890;2023-08-01T02:58:26;16.50;99.90
21648;DHT22;10985;54.182;7.890;2023-08-01T03:00:51;16.60;99.90
21648;DHT22;10985;54.182;7.890;2023-08-01T03:03:17;16.50;99.90
21648;DHT22;10985;54.182;7.890;2023-08-01T03:05:42;16.50;99.90
21648;DHT22;10985;54.182;7.890;2023-08-01T03:08:08;16.50;99.90
21648;DHT22;10985;54.182;7.890;2023-08-01T03:10:33;16.40;99.90
21648;DHT22;10985;54.182;7.890;2023-08-01T03:12:59;16.40;99.90
21648;DHT22;10985;54.182;7.890;2023-08-01T03:15:24;16.40;99.90
21648;DHT22;10985;54.182;7.890;2023-08-01T03:17:50;16.30;99.90
21648;DHT22;10985;54.182;7.890;2023-08-01T03:20:15;16.30;99.90
21648;DHT22;10985;54.182;7.890;2023-08-01T03:22:41;16.30;99.90
21648;DHT22;10985;54.182;7.890;2023-08-01T03:25:07;16.30;99.90
21648;DHT22;10985;54.182;7.890;2023-08-01T03:27:36;16.30;99.90
21648;DHT22;10985;54.182;7.890;2023-08-01T03:30:03;16.30;99.90
21648;DHT22;10985;54.182;7.890;2023-08-01T03:32:30;16.30;99.90
21648;DHT22;10985;54.182;7.890;2023-08-01T03:34:55;16.30;99.90
21648;DHT22;10985;54.182;7.890;2023-08-01T03:37:21;16.30;99.90
21648;DHT22;10985;54.182;7.890;2023-08-01T03:39:46;16.30;99.90
21648;DHT22;10985;54.182;7.890;2023-08-01T03:42:12;16.30;99.90
21648;DHT22;10985;54.182;7.890;2023-08-01T03:44:37;16.30;99.90
21648;DHT22;10985;54.182;7.890;2023-08-01T03:47:03;16.30;99.90
21648;DHT22;10985;54.182;7.890;2023-08-01T03:49:29;16.30;99.90
21648;DHT22;10985;54.182;7.890;2023-08-01T03:51:54;16.30;99.90
21648;DHT22;10985;54.182;7.890;2023-08-01T03:54:20;16.30;99.90
21648;DHT22;10985;54.182;7.890;2023-08-01T03:56:45;16.40;99.90
21648;DHT22;10985;54.182;7.890;2023-08-01T03:59:13;16.40;99.90
21648;DHT22;10985;54.182;7.890;2023-08-01T04:01:38;16.30;99.90
21648;DHT22;10985;54.182;7.890;2023-08-01T04:04:04;16.30;99.90
21648;DHT22;10985;54.182;7.890;2023-08-01T04:06:29;16.30;99.90
21648;DHT22;10985;54.182;7.890;2023-08-01T04:08:55;16.20;99.90
21648;DHT22;10985;54.182;7.890;2023-08-01T04:11:22;16.20;99.90
21648;DHT22;10985;54.182;7.890;2023-08-01T04:13:47;16.10;99.90
21648;DHT22;10985;54.182;7.890;2023-08-01T04:16:13;16.10;99.90
21648;DHT22;10985;54.182;7.890;2023-08-01T04:18:38;16.10;99.90
21648;DHT22;10985;54.182;7.890;2023-08-01T04:21:04;16.10;99.90
21648;DHT22;10985;54.182;7.890;2023-08-01T04:23:29;16.10;99.90
21648;DHT22;10985;54.182;7.890;2023-08-01T04:25:55;16.10;99.90
21648;DHT22;10985;54.182;7.890;2023-08-01T04:28:21;16.10;99.90
21648;DHT22;10985;54.182;7.890;2023-08-01T04:30:50;16.10;99.90
21648;DHT22;10985;54.182;7.890;2023-08-01T04:33:15;16.10;99.90
21648;DHT22;10985;54.182;7.890;2023-08-01T04:35:41;16.20;99.90
21648;DHT22;10985;54.182;7.890;2023-08-01T04:38:07;16.10;99.90
21648;DHT22;10985;54.182;7.890;2023-08-01T04:40:34;16.10;99.90
21648;DHT22;10985;54.182;7.890;2023-08-01T04:43:01;16.10;99.90
21648;DHT22;10985;54.182;7.890;2023-08-01T04:45:27;16.10;99.90
21648;DHT22;10985;54.182;7.890;2023-08-01T04:47:52;16.10;99.90
21648;DHT22;10985;54.182;7.890;2023-08-01T04:50:18;16.10;99.90
21648;DHT22;10985;54.182;7.890;2023-08-01T04:52:43;16.10;99.90
21648;DHT22;10985;54.182;7.890;2023-08-01T04:55:09;16.10;99.90
21648;DHT22;10985;54.182;7.890;2023-08-01T04:57:34;16.20;99.90
21648;DHT22;10985;54.182;7.890;2023-08-01T05:00:00;16.20;99.90
21648;DHT22;10985;54.182;7.890;2023-08-01T05:02:26;16.30;99.90
21648;DHT22;10985;54.182;7.890;2023-08-01T05:04:51;16.30;99.90
21648;DHT22;10985;54.182;7.890;2023-08-01T05:07:17;16.30;99.90
21648;DHT22;10985;54.182;7.890;2023-08-01T05:09:42;16.30;99.90
21648;DHT22;10985;54.182;7.890;2023-08-01T05:12:08;16.30;99.90
21648;DHT22;10985;54.182;7.890;2023-08-01T05:14:34;16.30;99.90
21648;DHT22;10985;54.182;7.890;2023-08-01T05:17:00;16.30;99.90
21648;DHT22;10985;54.182;7.890;2023-08-01T05:19:25;16.30;99.90
21648;DHT22;10985;54.182;7.890;2023-08-01T05:21:50;16.30;99.90
21648;DHT22;10985;54.182;7.890;2023-08-01T05:24:16;16.30;99.90
21648;DHT22;10985;54.182;7.890;2023-08-01T05:26:42;16.20;99.90
21648;DHT22;10985;54.182;7.890;2023-08-01T05:29:07;16.20;99.90
21648;DHT22;10985;54.182;7.890;2023-08-01T05:31:33;16.20;99.90
21648;DHT22;10985;54.182;7.890;2023-08-01T05:33:58;16.20;99.90
21648;DHT22;10985;54.182;7.890;2023-08-01T05:36:24;16.20;99.90
21648;DHT22;10985;54.182;7.890;2023-08-01T05:38:49;16.20;99.90
21648;DHT22;10985;54.182;7.890;2023-08-01T05:41:15;16.20;99.90
21648;DHT22;10985;54.182;7.890;2023-08-01T05:43:40;16.30;99.90
21648;DHT22;10985;54.182;7.890;2023-08-01T05:46:06;16.30;99.90
21648;DHT22;10985;54.182;7.890;2023-08-01T05:48:31;16.30;99.90
21648;DHT22;10985;54.182;7.890;2023-08-01T05:50:57;16.30;99.90
21648;DHT22;10985;54.182;7.890;2023-08-01T05:53:23;16.40;99.90
21648;DHT22;10985;54.182;7.890;2023-08-01T05:55:49;16.40;99.90
21648;DHT22;10985;54.182;7.890;2023-08-01T05:58:15;16.40;99.90
21648;DHT22;10985;54.182;7.890;2023-08-01T06:00:41;16.40;99.90
21648;DHT22;10985;54.182;7.890;2023-08-01T06:03:07;16.50;99.90
21648;DHT22;10985;54.182;7.890;2023-08-01T06:05:32;16.50;99.90
21648;DHT22;10985;54.182;7.890;2023-08-01T06:07:58;16.50;99.90
21648;DHT22;10985;54.182;7.890;2023-08-01T06:10:24;16.60;99.90
21648;DHT22;10985;54.182;7.890;2023-08-01T06:12:49;16.60;99.90
21648;DHT22;10985;54.182;7.890;2023-08-01T06:15:15;16.70;99.90
21648;DHT22;10985;54.182;7.890;2023-08-01T06:17:41;16.70;99.90
21648;DHT22;10985;54.182;7.890;2023-08-01T06:20:06;16.80;99.90
21648;DHT22;10985;54.182;7.890;2023-08-01T06:22:32;16.80;99.90
21648;DHT22;10985;54.182;7.890;2023-08-01T06:24:58;16.90;99.90
21648;DHT22;10985;54.182;7.890;2023-08-01T06:27:24;16.90;99.90
21648;DHT22;10985;54.182;7.890;2023-08-01T06:29:49;17.00;99.90
21648;DHT22;10985;54.182;7.890;2023-08-01T06:32:15;16.90;99.90
21648;DHT22;10985;54.182;7.890;2023-08-01T06:34:40;16.90;99.90
21648;DHT22;10985;54.182;7.890;2023-08-01T06:37:06;17.00;99.90
21648;DHT22;10985;54.182;7.890;2023-08-01T06:39:31;16.90;99.90
21648;DHT22;10985;54.182;7.890;2023-08-01T06:41:57;17.00;99.90
21648;DHT22;10985;54.182;7.890;2023-08-01T06:44:22;16.90;99.90
21648;DHT22;10985;54.182;7.890;2023-08-01T06:46:48;16.90;99.90
21648;DHT22;10985;54.182;7.890;2023-08-01T06:49:13;16.90;99.90
21648;DHT22;10985;54.182;7.890;2023-08-01T06:51:39;16.90;99.90
21648;DHT22;10985;54.182;7.890;2023-08-01T06:54:04;16.90;99.90
21648;DHT22;10985;54.182;7.890;2023-08-01T06:56:30;16.90;99.90
21648;DHT22;10985;54.182;7.890;2023-08-01T06:58:55;16.90;99.90
21648;DHT22;10985;54.182;7.890;2023-08-01T07:01:21;16.90;99.90
21648;DHT22;10985;54.182;7.890;2023-08-01T07:03:47;17.00;99.90
21648;DHT22;10985;54.182;7.890;2023-08-01T07:06:13;17.10;99.90
21648;DHT22;10985;54.182;7.890;2023-08-01T07:08:38;17.20;99.90
21648;DHT22;10985;54.182;7.890;2023-08-01T07:11:04;17.30;99.90
21648;DHT22;10985;54.182;7.890;2023-08-01T07:13:30;17.30;99.90
21648;DHT22;10985;54.182;7.890;2023-08-01T07:15:55;17.40;99.90
21648;DHT22;10985;54.182;7.890;2023-08-01T07:18:21;17.60;99.90
21648;DHT22;10985;54.182;7.890;2023-08-01T07:20:46;17.70;99.90
21648;DHT22;10985;54.182;7.890;2023-08-01T07:23:12;17.80;99.90
21648;DHT22;10985;54.182;7.890;2023-08-01T07:25:37;17.80;99.90
21648;DHT22;10985;54.182;7.890;2023-08-01T07:28:03;17.80;99.90
21648;DHT22;10985;54.182;7.890;2023-08-01T07:30:28;17.90;99.90
21648;DHT22;10985;54.182;7.890;2023-08-01T07:32:54;18.00;99.90
21648;DHT22;10985;54.182;7.890;2023-08-01T07:35:20;18.10;99.90
21648;DHT22;10985;54.182;7.890;2023-08-01T07:37:45;18.20;99.90
21648;DHT22;10985;54.182;7.890;2023-08-01T07:40:11;18.20;99.90
21648;DHT22;10985;54.182;7.890;2023-08-01T07:42:36;18.20;99.90
21648;DHT22;10985;54.182;7.890;2023-08-01T07:45:02;18.20;99.90
21648;DHT22;10985;54.182;7.890;2023-08-01T07:47:27;18.10;99.90
21648;DHT22;10985;54.182;7.890;2023-08-01T07:49:53;18.30;99.90
21648;DHT22;10985;54.182;7.890;2023-08-01T07:52:19;18.30;99.90
21648;DHT22;10985;54.182;7.890;2023-08-01T07:54:44;18.40;99.90
21648;DHT22;10985;54.182;7.890;2023-08-01T07:57:10;18.40;99.90
21648;DHT22;10985;54.182;7.890;2023-08-01T07:59:36;18.50;99.90
21648;DHT22;10985;54.182;7.890;2023-08-01T08:02:01;18.70;99.90
21648;DHT22;10985;54.182;7.890;2023-08-01T08:04:27;18.90;99.90
21648;DHT22;10985;54.182;7.890;2023-08-01T08:06:53;19.00;99.90
21648;DHT22;10985;54.182;7.890;2023-08-01T08:09:20;19.20;99.90
21648;DHT22;10985;54.182;7.890;2023-08-01T08:11:47;19.30;99.90
21648;DHT22;10985;54.182;7.890;2023-08-01T08:14:13;19.50;99.90
21648;DHT22;10985;54.182;7.890;2023-08-01T08:16:40;19.60;99.90
21648;DHT22;10985;54.182;7.890;2023-08-01T08:19:06;19.70;99.90
21648;DHT22;10985;54.182;7.890;2023-08-01T08:21:31;19.70;99.90
21648;DHT22;10985;54.182;7.890;2023-08-01T08:23:57;19.80;99.90
21648;DHT22;10985;54.182;7.890;2023-08-01T08:26:22;19.80;99.90
21648;DHT22;10985;54.182;7.890;2023-08-01T08:28:49;19.80;99.90
21648;DHT22;10985;54.182;7.890;2023-08-01T08:31:14;19.80;99.90
21648;DHT22;10985;54.182;7.890;2023-08-01T08:33:40;19.80;99.90
21648;DHT22;10985;54.182;7.890;2023-08-01T08:36:05;19.70;99.90
21648;DHT22;10985;54.182;7.890;2023-08-01T08:38:31;19.70;99.90
21648;DHT22;10985;54.182;7.890;2023-08-01T08:41:11;19.70;99.90
21648;DHT22;10985;54.182;7.890;2023-08-01T08:43:39;19.80;99.90
21648;DHT22;10985;54.182;7.890;2023-08-01T08:46:08;19.90;99.90
21648;DHT22;10985;54.182;7.890;2023-08-01T08:48:34;20.00;99.90
21648;DHT22;10985;54.182;7.890;2023-08-01T08:51:01;20.20;99.90
21648;DHT22;10985;54.182;7.890;2023-08-01T08:53:28;20.70;99.90
21648;DHT22;10985;54.182;7.890;2023-08-01T08:55:55;21.20;99.90
21648;DHT22;10985;54.182;7.890;2023-08-01T08:58:22;21.30;99.90
21648;DHT22;10985;54.182;7.890;2023-08-01T09:00:48;21.30;99.90
21648;DHT22;10985;54.182;7.890;2023-08-01T09:03:15;21.30;99.90
21648;DHT22;10985;54.182;7.890;2023-08-01T09:05:57;21.50;99.90
21648;DHT22;10985;54.182;7.890;2023-08-01T09:08:27;21.70;99.90
21648;DHT22;10985;54.182;7.890;2023-08-01T09:10:53;22.00;99.90
21648;DHT22;10985;54.182;7.890;2023-08-01T09:13:19;22.30;99.90
21648;DHT22;10985;54.182;7.890;2023-08-01T09:15:45;22.60;99.90
21648;DHT22;10985;54.182;7.890;2023-08-01T09:18:11;22.90;99.90
21648;DHT22;10985;54.182;7.890;2023-08-01T09:20:47;23.10;99.90
21648;DHT22;10985;54.182;7.890;2023-08-01T09:23:13;23.40;99.90
21648;DHT22;10985;54.182;7.890;2023-08-01T09:25:40;23.70;99.90
21648;DHT22;10985;54.182;7.890;2023-08-01T09:30:50;24.10;99.90
21648;DHT22;10985;54.182;7.890;2023-08-01T09:33:16;24.40;99.90
21648;DHT22;10985;54.182;7.890;2023-08-01T09:35:41;24.90;99.90
21648;DHT22;10985;54.182;7.890;2023-08-01T09:38:10;25.20;99.90
21648;DHT22;10985;54.182;7.890;2023-08-01T09:40:39;25.60;99.90
21648;DHT22;10985;54.182;7.890;2023-08-01T09:43:06;25.70;99.90
21648;DHT22;10985;54.182;7.890;2023-08-01T09:45:31;25.60;99.90
21648;DHT22;10985;54.182;7.890;2023-08-01T09:47:59;25.50;99.90
21648;DHT22;10985;54.182;7.890;2023-08-01T09:50:25;25.80;99.90
21648;DHT22;10985;54.182;7.890;2023-08-01T09:52:51;26.10;99.90
21648;DHT22;10985;54.182;7.890;2023-08-01T09:55:33;26.50;99.90
21648;DHT22;10985;54.182;7.890;2023-08-01T09:57:59;26.80;99.90
21648;DHT22;10985;54.182;7.890;2023-08-01T10:00:31;27.00;99.90
21648;DHT22;10985;54.182;7.890;2023-08-01T10:03:00;26.80;99.90
21648;DHT22;10985;54.182;7.890;2023-08-01T10:05:29;26.70;99.90
21648;DHT22;10985;54.182;7.890;2023-08-01T10:07:59;26.50;99.90
21648;DHT22;10985;54.182;7.890;2023-08-01T10:10:25;26.60;99.90
21648;DHT22;10985;54.182;7.890;2023-08-01T10:12:52;27.00;99.90
21648;DHT22;10985;54.182;7.890;2023-08-01T10:15:19;27.20;99.90
21648;DHT22;10985;54.182;7.890;2023-08-01T10:17:44;27.60;99.90
21648;DHT22;10985;54.182;7.890;2023-08-01T10:20:11;27.60;99.90
21648;DHT22;10985;54.182;7.890;2023-08-01T10:22:38;27.80;99.90
21648;DHT22;10985;54.182;7.890;2023-08-01T10:25:04;28.10;99.90
21648;DHT22;10985;54.182;7.890;2023-08-01T10:27:30;28.30;99.90
21648;DHT22;10985;54.182;7.890;2023-08-01T10:30:00;28.60;99.90
21648;DHT22;10985;54.182;7.890;2023-08-01T10:32:36;28.50;99.90
21648;DHT22;10985;54.182;7.890;2023-08-01T10:35:02;28.70;99.90
21648;DHT22;10985;54.182;7.890;2023-08-01T10:37:42;28.90;99.90
21648;DHT22;10985;54.182;7.890;2023-08-01T10:40:08;29.20;99.90
21648;DHT22;10985;54.182;7.890;2023-08-01T10:42:42;29.40;99.90
21648;DHT22;10985;54.182;7.890;2023-08-01T10:45:23;29.50;99.90
21648;DHT22;10985;54.182;7.890;2023-08-01T10:47:49;29.70;99.90
21648;DHT22;10985;54.182;7.890;2023-08-01T10:50:16;29.80;99.90
21648;DHT22;10985;54.182;7.890;2023-08-01T10:52:42;29.90;99.90
21648;DHT22;10985;54.182;7.890;2023-08-01T10:55:08;30.00;99.90
21648;DHT22;10985;54.182;7.890;2023-08-01T10:57:39;30.10;99.90
21648;DHT22;10985;54.182;7.890;2023-08-01T11:00:15;30.30;99.90
21648;DHT22;10985;54.182;7.890;2023-08-01T11:02:41;30.20;99.90
21648;DHT22;10985;54.182;7.890;2023-08-01T11:05:07;30.10;99.90
21648;DHT22;10985;54.182;7.890;2023-08-01T11:07:34;29.90;99.90
21648;DHT22;10985;54.182;7.890;2023-08-01T11:10:06;30.00;99.90
21648;DHT22;10985;54.182;7.890;2023-08-01T11:12:37;29.90;99.90
21648;DHT22;10985;54.182;7.890;2023-08-01T11:15:05;29.80;99.90
21648;DHT22;10985;54.182;7.890;2023-08-01T11:17:33;29.60;99.90
21648;DHT22;10985;54.182;7.890;2023-08-01T11:20:06;29.40;99.90
21648;DHT22;10985;54.182;7.890;2023-08-01T11:22:33;29.40;99.90
21648;DHT22;10985;54.182;7.890;2023-08-01T11:24:58;29.20;99.90
21648;DHT22;10985;54.182;7.890;2023-08-01T11:27:25;28.80;99.90
21648;DHT22;10985;54.182;7.890;2023-08-01T11:29:51;28.30;99.90
21648;DHT22;10985;54.182;7.890;2023-08-01T11:32:18;28.00;99.90
21648;DHT22;10985;54.182;7.890;2023-08-01T11:34:45;27.70;99.90
21648;DHT22;10985;54.182;7.890;2023-08-01T11:37:15;27.30;99.90
21648;DHT22;10985;54.182;7.890;2023-08-01T11:39:41;27.10;99.90
21648;DHT22;10985;54.182;7.890;2023-08-01T11:42:06;27.00;99.90
21648;DHT22;10985;54.182;7.890;2023-08-01T11:44:32;26.80;99.90
21648;DHT22;10985;54.182;7.890;2023-08-01T11:46:58;26.40;99.90
21648;DHT22;10985;54.182;7.890;2023-08-01T11:49:23;26.30;99.90
21648;DHT22;10985;54.182;7.890;2023-08-01T11:51:49;26.20;99.90
21648;DHT22;10985;54.182;7.890;2023-08-01T11:54:15;26.10;99.90
21648;DHT22;10985;54.182;7.890;2023-08-01T11:56:42;26.00;99.90
21648;DHT22;10985;54.182;7.890;2023-08-01T11:59:16;25.90;99.90
21648;DHT22;10985;54.182;7.890;2023-08-01T12:01:43;25.80;99.90
21648;DHT22;10985;54.182;7.890;2023-08-01T12:04:10;25.80;99.90
21648;DHT22;10985;54.182;7.890;2023-08-01T12:06:36;25.90;99.90
21648;DHT22;10985;54.182;7.890;2023-08-01T12:09:12;25.80;99.90
21648;DHT22;10985;54.182;7.890;2023-08-01T12:11:39;26.10;99.90
21648;DHT22;10985;54.182;7.890;2023-08-01T12:14:09;26.50;99.90
21648;DHT22;10985;54.182;7.890;2023-08-01T12:16:36;26.90;99.90
21648;DHT22;10985;54.182;7.890;2023-08-01T12:19:02;27.10;99.90
21648;DHT22;10985;54.182;7.890;2023-08-01T12:21:28;27.40;99.90
21648;DHT22;10985;54.182;7.890;2023-08-01T12:23:54;27.60;99.90
21648;DHT22;10985;54.182;7.890;2023-08-01T12:26:19;27.60;99.90
21648;DHT22;10985;54.182;7.890;2023-08-01T12:28:45;27.70;99.90
21648;DHT22;10985;54.182;7.890;2023-08-01T12:31:16;27.80;99.90
21648;DHT22;10985;54.182;7.890;2023-08-01T12:33:41;28.10;99.90
21648;DHT22;10985;54.182;7.890;2023-08-01T12:36:07;28.40;99.90
21648;DHT22;10985;54.182;7.890;2023-08-01T12:38:32;28.60;99.90
21648;DHT22;10985;54.182;7.890;2023-08-01T12:40:58;28.90;99.90
21648;DHT22;10985;54.182;7.890;2023-08-01T12:43:23;29.20;99.90
21648;DHT22;10985;54.182;7.890;2023-08-01T12:45:49;29.40;99.90
21648;DHT22;10985;54.182;7.890;2023-08-01T12:48:14;29.70;99.90
21648;DHT22;10985;54.182;7.890;2023-08-01T12:50:44;30.00;99.90
21648;DHT22;10985;54.182;7.890;2023-08-01T12:53:11;30.20;99.90
21648;DHT22;10985;54.182;7.890;2023-08-01T12:55:37;30.40;99.90
21648;DHT22;10985;54.182;7.890;2023-08-01T12:58:03;30.20;99.90
21648;DHT22;10985;54.182;7.890;2023-08-01T13:00:29;30.30;99.90
21648;DHT22;10985;54.182;7.890;2023-08-01T13:02:55;30.40;99.90
21648;DHT22;10985;54.182;7.890;2023-08-01T13:05:21;30.40;99.90
21648;DHT22;10985;54.182;7.890;2023-08-01T13:07:47;30.30;99.90
21648;DHT22;10985;54.182;7.890;2023-08-01T13:10:12;30.10;99.90
21648;DHT22;10985;54.182;7.890;2023-08-01T13:12:38;29.70;99.90
21648;DHT22;10985;54.182;7.890;2023-08-01T13:15:04;29.20;99.90
21648;DHT22;10985;54.182;7.890;2023-08-01T13:17:30;28.50;99.90
21648;DHT22;10985;54.182;7.890;2023-08-01T13:19:55;28.10;99.90
21648;DHT22;10985;54.182;7.890;2023-08-01T13:22:21;27.80;99.90
21648;DHT22;10985;54.182;7.890;2023-08-01T13:24:46;27.50;99.90
21648;DHT22;10985;54.182;7.890;2023-08-01T13:27:13;27.00;99.90
21648;DHT22;10985;54.182;7.890;2023-08-01T13:29:38;26.70;99.90
21648;DHT22;10985;54.182;7.890;2023-08-01T13:32:06;26.60;99.90
21648;DHT22;10985;54.182;7.890;2023-08-01T13:34:32;26.10;99.90
21648;DHT22;10985;54.182;7.890;2023-08-01T13:36:57;25.80;99.90
21648;DHT22;10985;54.182;7.890;2023-08-01T13:39:23;25.60;99.90
21648;DHT22;10985;54.182;7.890;2023-08-01T13:41:49;25.40;99.90
21648;DHT22;10985;54.182;7.890;2023-08-01T13:44:14;25.30;99.90
21648;DHT22;10985;54.182;7.890;2023-08-01T13:46:40;25.10;99.90
21648;DHT22;10985;54.182;7.890;2023-08-01T13:49:05;25.00;99.90
21648;DHT22;10985;54.182;7.890;2023-08-01T13:51:33;24.80;99.90
21648;DHT22;10985;54.182;7.890;2023-08-01T13:53:58;24.60;99.90
21648;DHT22;10985;54.182;7.890;2023-08-01T13:56:24;24.50;99.90
21648;DHT22;10985;54.182;7.890;2023-08-01T13:58:51;24.40;99.90
21648;DHT22;10985;54.182;7.890;2023-08-01T14:01:17;24.30;99.90
21648;DHT22;10985;54.182;7.890;2023-08-01T14:03:44;24.20;99.90
21648;DHT22;10985;54.182;7.890;2023-08-01T14:06:11;24.20;99.90
21648;DHT22;10985;54.182;7.890;2023-08-01T14:08:38;24.00;99.90
21648;DHT22;10985;54.182;7.890;2023-08-01T14:11:07;23.90;99.90
21648;DHT22;10985;54.182;7.890;2023-08-01T14:13:33;23.70;99.90
21648;DHT22;10985;54.182;7.890;2023-08-01T14:15:59;23.50;99.90
21648;DHT22;10985;54.182;7.890;2023-08-01T14:18:25;23.40;99.90
21648;DHT22;10985;54.182;7.890;2023-08-01T14:20:50;23.20;99.90
21648;DHT22;10985;54.182;7.890;2023-08-01T14:23:16;23.10;99.90
21648;DHT22;10985;54.182;7.890;2023-08-01T14:25:42;23.00;99.90
21648;DHT22;10985;54.182;7.890;2023-08-01T14:28:09;22.90;99.90
21648;DHT22;10985;54.182;7.890;2023-08-01T14:30:34;22.90;99.90
21648;DHT22;10985;54.182;7.890;2023-08-01T14:33:01;22.80;99.90
21648;DHT22;10985;54.182;7.890;2023-08-01T14:35:27;22.60;99.90
21648;DHT22;10985;54.182;7.890;2023-08-01T14:37:52;22.50;99.90
21648;DHT22;10985;54.182;7.890;2023-08-01T14:40:18;22.40;99.90
21648;DHT22;10985;54.182;7.890;2023-08-01T14:42:44;22.20;99.90
21648;DHT22;10985;54.182;7.890;2023-08-01T14:45:09;22.10;99.90
21648;DHT22;10985;54.182;7.890;2023-08-01T14:47:35;22.00;99.90
21648;DHT22;10985;54.182;7.890;2023-08-01T14:50:03;21.90;99.90
21648;DHT22;10985;54.182;7.890;2023-08-01T14:52:30;21.70;99.90
21648;DHT22;10985;54.182;7.890;2023-08-01T14:54:55;21.70;99.90
21648;DHT22;10985;54.182;7.890;2023-08-01T14:57:21;21.70;99.90
21648;DHT22;10985;54.182;7.890;2023-08-01T14:59:46;21.50;99.90
21648;DHT22;10985;54.182;7.890;2023-08-01T15:02:12;21.60;99.90
21648;DHT22;10985;54.182;7.890;2023-08-01T15:04:37;21.60;99.90
21648;DHT22;10985;54.182;7.890;2023-08-01T15:07:03;21.50;99.90
21648;DHT22;10985;54.182;7.890;2023-08-01T15:09:29;21.60;99.90
21648;DHT22;10985;54.182;7.890;2023-08-01T15:11:55;21.50;99.90
21648;DHT22;10985;54.182;7.890;2023-08-01T15:14:20;21.50;99.90
21648;DHT22;10985;54.182;7.890;2023-08-01T15:16:48;21.40;99.90
21648;DHT22;10985;54.182;7.890;2023-08-01T15:19:14;21.30;99.90
21648;DHT22;10985;54.182;7.890;2023-08-01T15:21:39;21.30;99.90
21648;DHT22;10985;54.182;7.890;2023-08-01T15:24:05;21.30;99.90
21648;DHT22;10985;54.182;7.890;2023-08-01T15:26:30;21.20;99.90
21648;DHT22;10985;54.182;7.890;2023-08-01T15:28:56;21.30;99.90
21648;DHT22;10985;54.182;7.890;2023-08-01T15:31:21;21.30;99.90